Time;durP1;ratioP1;P1;durP2;ratioP2;P2;SDS_P1;SDS_P2;PMS_P1;PMS_P2;Temp;Humidity;BMP_temperature;BMP_pressure;BME280_temperature;BME280_humidity;BME280_pressure;Samples;Min_cycle;Max_cycle;Signal;HPM_P1;HPM_P2
2022/10/14 00:01:25;;;;;;;61.17;31.10;;;15.40;99.90;;;;;;5060100;28;20021;-72
2022/10/14 00:03:53;;;;;;;48.08;28.48;;;15.40;99.90;;;;;;5066434;28;20040;-72
2022/10/14 00:06:22;;;;;;;46.00;27.90;;;15.40;99.90;;;;;;5061493;28;20473;-72
2022/10/14 00:08:48;;;;;;;41.60;26.25;;;15.40;99.90;;;;;;5061347;28;20155;-72
2022/10/14 00:11:16;;;;;;;45.05;27.05;;;15.40;99.90;;;;;;5064302;28;20103;-72
2022/10/14 00:13:42;;;;;;;52.67;29.95;;;15.50;99.90;;;;;;5062309;28;20028;-78
2022/10/14 00:16:16;;;;;;;48.50;28.48;;;15.50;99.90;;;;;;5059110;28;20052;-73
2022/10/14 00:18:42;;;;;;;44.33;27.10;;;15.40;99.90;;;;;;5055895;28;20076;-72
2022/10/14 00:21:08;;;;;;;52.00;29.13;;;15.50;99.90;;;;;;5069444;28;20070;-76
2022/10/14 00:23:33;;;;;;;45.85;25.95;;;15.40;99.90;;;;;;5057137;28;20028;-74
2022/10/14 00:25:59;;;;;;;50.50;27.85;;;15.40;99.90;;;;;;5062930;28;20095;-74
2022/10/14 00:28:24;;;;;;;40.80;24.92;;;15.40;99.90;;;;;;5057832;28;20351;-73
2022/10/14 00:30:58;;;;;;;43.50;24.67;;;15.50;99.90;;;;;;5062932;28;20476;-75
2022/10/14 00:33:24;;;;;;;46.88;27.02;;;15.40;99.90;;;;;;5062510;28;20032;-73
2022/10/14 00:35:57;;;;;;;46.70;28.23;;;15.40;99.90;;;;;;5060764;28;20078;-73
2022/10/14 00:38:24;;;;;;;52.00;28.77;;;15.40;99.90;;;;;;5064398;28;20381;-72
2022/10/14 00:40:49;;;;;;;53.80;28.02;;;15.40;99.90;;;;;;5059944;28;20029;-72
2022/10/14 00:43:15;;;;;;;45.38;29.02;;;15.50;99.90;;;;;;5058485;28;20032;-73
2022/10/14 00:45:41;;;;;;;38.15;23.33;;;15.50;99.90;;;;;;5062269;28;20457;-72
2022/10/14 00:48:08;;;;;;;55.85;28.15;;;15.40;99.90;;;;;;5061849;28;20453;-77
2022/10/14 00:50:35;;;;;;;45.38;25.45;;;15.40;99.90;;;;;;5060982;28;20059;-72
2022/10/14 00:53:02;;;;;;;46.10;25.02;;;15.40;99.90;;;;;;5072416;28;20036;-72
2022/10/14 00:55:28;;;;;;;43.38;23.13;;;15.40;99.90;;;;;;5063175;28;20031;-77
2022/10/14 00:57:54;;;;;;;42.97;23.17;;;15.40;99.90;;;;;;5057488;28;20025;-73
2022/10/14 01:00:20;;;;;;;39.22;23.20;;;15.50;99.90;;;;;;5062887;28;20017;-74
2022/10/14 01:02:46;;;;;;;39.97;23.42;;;15.40;99.90;;;;;;5061535;28;20032;-73
2022/10/14 01:05:14;;;;;;;37.65;22.85;;;15.50;99.90;;;;;;5061428;28;20016;-72
2022/10/14 01:07:40;;;;;;;40.05;24.92;;;15.50;99.90;;;;;;5060903;28;20074;-75
2022/10/14 01:10:14;;;;;;;46.55;25.52;;;15.50;99.90;;;;;;5059484;28;20412;-73
2022/10/14 01:13:01;;;;;;;48.13;26.45;;;15.50;99.90;;;;;;5061790;28;20103;-72
2022/10/14 01:15:36;;;;;;;46.35;24.40;;;15.50;99.90;;;;;;5059012;28;20083;-72
2022/10/14 01:18:31;;;;;;;44.00;25.05;;;15.50;99.90;;;;;;5063960;28;20484;-72
2022/10/14 01:21:03;;;;;;;47.60;25.75;;;15.50;99.90;;;;;;5061694;28;20032;-72
2022/10/14 01:23:50;;;;;;;36.90;22.80;;;15.50;99.90;;;;;;5065612;28;20029;-73
2022/10/14 01:26:37;;;;;;;44.08;24.77;;;15.50;99.90;;;;;;5059973;28;20083;-72
2022/10/14 01:29:30;;;;;;;40.08;22.33;;;15.50;99.90;;;;;;5058295;28;20020;-72
2022/10/14 01:32:09;;;;;;;45.33;23.35;;;15.50;99.90;;;;;;5060032;28;20033;-74
2022/10/14 01:34:39;;;;;;;47.05;24.25;;;15.40;99.90;;;;;;5058746;28;20017;-72
2022/10/14 01:37:14;;;;;;;43.75;22.88;;;15.40;99.90;;;;;;5063414;28;20039;-72
2022/10/14 01:39:48;;;;;;;31.55;20.75;;;15.30;99.90;;;;;;5061551;28;20470;-72
2022/10/14 01:42:18;;;;;;;36.40;21.38;;;15.40;99.90;;;;;;5057885;28;20468;-73
2022/10/14 01:44:50;;;;;;;44.00;26.90;;;15.40;99.90;;;;;;5055271;28;20020;-72
2022/10/14 01:47:18;;;;;;;36.67;20.80;;;15.30;99.90;;;;;;5066935;28;20044;-73
2022/10/14 01:49:50;;;;;;;42.10;24.27;;;15.20;99.90;;;;;;5061130;28;20482;-72
2022/10/14 01:52:21;;;;;;;37.50;22.95;;;15.20;99.90;;;;;;5057093;28;20021;-72
2022/10/14 01:54:53;;;;;;;33.60;21.73;;;15.30;99.90;;;;;;5060289;28;20350;-72
2022/10/14 01:57:24;;;;;;;41.15;22.33;;;15.30;99.90;;;;;;5063225;28;20032;-72
2022/10/14 01:59:51;;;;;;;41.53;24.73;;;15.30;99.90;;;;;;5062043;28;20512;-74
2022/10/14 02:02:18;;;;;;;39.92;23.63;;;15.30;99.90;;;;;;5061588;28;20425;-72
2022/10/14 02:04:43;;;;;;;33.50;22.08;;;15.30;99.90;;;;;;5055382;28;20021;-72
2022/10/14 02:07:15;;;;;;;38.35;23.17;;;15.40;99.90;;;;;;5064156;28;20048;-72
2022/10/14 02:10:13;;;;;;;38.05;22.20;;;15.40;99.90;;;;;;5059161;28;20471;-73
2022/10/14 02:13:08;;;;;;;34.83;21.55;;;15.40;99.90;;;;;;5070174;28;20485;-72
2022/10/14 02:15:39;;;;;;;33.47;21.20;;;15.30;99.90;;;;;;5058373;28;20116;-72
2022/10/14 02:18:21;;;;;;;41.13;23.90;;;15.30;99.90;;;;;;5060576;28;20044;-72
2022/10/14 02:21:03;;;;;;;31.85;21.00;;;15.30;99.90;;;;;;5058938;28;20025;-72
2022/10/14 02:23:36;;;;;;;35.40;20.00;;;15.30;99.90;;;;;;5058707;28;20039;-72
2022/10/14 02:26:02;;;;;;;30.23;18.67;;;15.40;99.90;;;;;;5065733;28;20039;-72
2022/10/14 02:28:30;;;;;;;33.58;18.75;;;15.40;99.90;;;;;;5062293;28;20069;-72
2022/10/14 02:31:04;;;;;;;34.33;21.48;;;15.40;99.90;;;;;;5060515;28;20026;-72
2022/10/14 02:33:37;;;;;;;30.38;19.92;;;15.40;99.90;;;;;;5062636;28;20025;-76
2022/10/14 02:36:06;;;;;;;30.13;19.40;;;15.40;99.90;;;;;;5067267;28;20115;-72
2022/10/14 02:38:32;;;;;;;42.45;22.15;;;15.50;99.90;;;;;;5069155;28;20017;-72
2022/10/14 02:41:01;;;;;;;31.42;19.38;;;15.50;99.90;;;;;;5066432;28;20025;-72
2022/10/14 02:43:28;;;;;;;27.90;16.90;;;15.50;99.90;;;;;;5065359;28;20031;-72
2022/10/14 02:45:58;;;;;;;27.23;17.10;;;15.40;99.90;;;;;;5064587;28;20024;-72
2022/10/14 02:48:23;;;;;;;34.08;18.35;;;15.30;99.90;;;;;;5064062;28;20051;-73
2022/10/14 02:50:49;;;;;;;29.15;18.25;;;15.30;99.90;;;;;;5064060;28;20024;-72
2022/10/14 02:53:16;;;;;;;29.23;17.50;;;15.30;99.90;;;;;;5063895;28;20037;-72
2022/10/14 02:55:42;;;;;;;33.25;19.80;;;15.40;99.90;;;;;;5065914;28;20033;-72
2022/10/14 02:58:08;;;;;;;26.42;17.95;;;15.40;99.90;;;;;;5068829;28;20069;-74
2022/10/14 03:00:33;;;;;;;25.38;17.50;;;15.40;99.90;;;;;;5064409;28;20060;-73
2022/10/14 03:02:59;;;;;;;27.10;17.90;;;15.40;99.90;;;;;;5063949;28;20125;-73
2022/10/14 03:05:24;;;;;;;27.60;17.60;;;15.40;99.90;;;;;;5063626;28;20029;-73
2022/10/14 03:07:50;;;;;;;26.67;17.65;;;15.50;99.90;;;;;;5063420;28;20389;-74
2022/10/14 03:10:16;;;;;;;31.73;17.35;;;15.40;99.90;;;;;;5063208;28;20019;-73
2022/10/14 03:12:42;;;;;;;33.08;16.15;;;15.40;99.90;;;;;;5075338;28;20270;-72
2022/10/14 03:15:08;;;;;;;24.38;14.65;;;15.30;99.90;;;;;;5062901;28;20059;-71
2022/10/14 03:17:34;;;;;;;29.67;16.48;;;15.30;99.90;;;;;;5062989;28;20042;-72
2022/10/14 03:19:59;;;;;;;22.67;14.38;;;15.20;99.90;;;;;;5064709;28;20017;-72
2022/10/14 03:22:25;;;;;;;23.85;15.45;;;15.20;99.90;;;;;;5070118;28;20123;-73
2022/10/14 03:24:51;;;;;;;24.80;15.27;;;15.20;99.90;;;;;;5066471;28;20028;-71
2022/10/14 03:27:16;;;;;;;21.65;15.02;;;15.20;99.90;;;;;;5066482;28;20032;-71
2022/10/14 03:29:42;;;;;;;29.25;16.10;;;15.20;99.90;;;;;;5065954;28;20061;-72
2022/10/14 03:32:07;;;;;;;30.67;15.38;;;15.30;99.90;;;;;;5063375;28;20033;-72
2022/10/14 03:34:33;;;;;;;23.15;14.70;;;15.40;99.90;;;;;;5067750;28;20438;-72
2022/10/14 03:36:58;;;;;;;21.02;14.27;;;15.40;99.90;;;;;;5064457;28;20020;-72
2022/10/14 03:39:24;;;;;;;21.88;13.73;;;15.40;99.90;;;;;;5066774;28;20036;-72
2022/10/14 03:41:50;;;;;;;21.05;13.98;;;15.40;99.90;;;;;;5061322;28;20099;-72
2022/10/14 03:44:15;;;;;;;25.67;14.93;;;15.40;99.90;;;;;;5063288;28;20035;-72
2022/10/14 03:46:41;;;;;;;25.65;15.10;;;15.40;99.90;;;;;;5060185;28;20087;-72
2022/10/14 03:49:07;;;;;;;22.92;14.65;;;15.40;99.90;;;;;;5062170;28;20469;-72
2022/10/14 03:51:32;;;;;;;23.27;14.10;;;15.30;99.90;;;;;;5058283;28;20033;-71
2022/10/14 03:53:58;;;;;;;22.48;13.40;;;15.30;99.90;;;;;;5061362;28;20082;-71
2022/10/14 03:56:23;;;;;;;19.13;13.35;;;15.30;99.90;;;;;;5060769;28;20069;-71
2022/10/14 03:58:49;;;;;;;19.70;13.18;;;15.30;99.90;;;;;;5064789;28;20035;-72
2022/10/14 04:01:15;;;;;;;17.33;12.32;;;15.40;99.90;;;;;;5065639;28;20029;-72
2022/10/14 04:03:40;;;;;;;21.90;13.27;;;15.40;99.90;;;;;;5057369;28;20104;-71
2022/10/14 04:06:06;;;;;;;17.88;12.88;;;15.40;99.90;;;;;;5062826;28;20043;-72
2022/10/14 04:08:32;;;;;;;22.90;13.55;;;15.40;99.90;;;;;;5059859;28;20389;-72
2022/10/14 04:10:57;;;;;;;23.13;13.23;;;15.40;99.90;;;;;;5062764;28;20025;-73
2022/10/14 04:13:23;;;;;;;21.60;12.57;;;15.30;99.90;;;;;;5064162;28;20035;-71
2022/10/14 04:15:49;;;;;;;21.40;13.18;;;15.30;99.90;;;;;;5059826;28;20029;-71
2022/10/14 04:18:15;;;;;;;17.73;12.40;;;15.40;99.90;;;;;;5066505;28;20443;-72
2022/10/14 04:20:40;;;;;;;18.10;12.27;;;15.40;99.90;;;;;;5064128;28;20028;-74
2022/10/14 04:23:06;;;;;;;21.25;12.80;;;15.40;99.90;;;;;;5062326;28;20145;-71
2022/10/14 04:25:32;;;;;;;26.33;14.98;;;15.40;99.90;;;;;;5062008;28;20025;-72
2022/10/14 04:27:58;;;;;;;20.98;13.50;;;15.40;99.90;;;;;;5059065;28;20029;-72
2022/10/14 04:30:23;;;;;;;22.92;12.20;;;15.40;99.90;;;;;;5069546;28;20114;-72
2022/10/14 04:32:49;;;;;;;20.17;13.65;;;15.40;99.90;;;;;;5068258;28;20017;-72
2022/10/14 04:35:15;;;;;;;21.10;12.32;;;15.40;99.90;;;;;;5062215;28;20025;-72
2022/10/14 04:37:40;;;;;;;31.75;15.30;;;15.40;99.90;;;;;;5072431;28;20021;-72
2022/10/14 04:40:06;;;;;;;28.85;13.60;;;15.40;99.90;;;;;;5058373;28;20028;-72
2022/10/14 04:42:32;;;;;;;18.85;11.57;;;15.30;99.90;;;;;;5064292;28;20072;-72
2022/10/14 04:44:58;;;;;;;18.15;11.30;;;15.40;99.90;;;;;;5064466;28;20048;-72
2022/10/14 04:47:23;;;;;;;16.45;10.50;;;15.40;99.90;;;;;;5061177;28;20079;-72
2022/10/14 04:49:49;;;;;;;18.48;12.00;;;15.50;99.90;;;;;;5058831;28;20027;-71
2022/10/14 04:52:14;;;;;;;15.15;10.98;;;15.50;99.90;;;;;;5062706;28;20043;-72
2022/10/14 04:54:40;;;;;;;13.43;10.13;;;15.60;99.90;;;;;;5057792;28;20025;-72
2022/10/14 04:57:06;;;;;;;16.08;10.05;;;15.50;99.90;;;;;;5062175;28;20028;-72
2022/10/14 04:59:33;;;;;;;15.23;10.55;;;15.60;99.90;;;;;;5065799;28;20543;-73
2022/10/14 05:01:58;;;;;;;17.83;11.57;;;15.50;99.90;;;;;;5062918;28;20103;-73
2022/10/14 05:04:24;;;;;;;21.65;11.55;;;15.50;99.90;;;;;;5061634;28;20104;-73
2022/10/14 05:06:49;;;;;;;19.08;10.43;;;15.50;99.90;;;;;;5060755;28;20025;-72
2022/10/14 05:09:15;;;;;;;16.27;10.70;;;15.40;99.90;;;;;;5060905;28;20074;-72
2022/10/14 05:11:41;;;;;;;17.38;11.30;;;15.40;99.90;;;;;;5062266;28;20029;-73
2022/10/14 05:14:06;;;;;;;17.00;11.80;;;15.40;99.90;;;;;;5063171;28;20028;-73
2022/10/14 05:16:32;;;;;;;19.25;12.98;;;15.40;99.90;;;;;;5064763;28;20037;-73
2022/10/14 05:18:58;;;;;;;13.57;10.65;;;15.40;99.90;;;;;;5059510;28;20032;-73
2022/10/14 05:21:23;;;;;;;23.35;12.95;;;15.40;99.90;;;;;;5056247;28;20021;-73
2022/10/14 05:23:49;;;;;;;16.70;12.20;;;15.50;99.90;;;;;;5059565;28;20465;-73
2022/10/14 05:26:15;;;;;;;20.60;12.75;;;15.40;99.90;;;;;;5063249;28;20013;-73
2022/10/14 05:28:40;;;;;;;16.77;11.93;;;15.40;99.90;;;;;;5060257;28;21372;-72
2022/10/14 05:31:06;;;;;;;24.45;13.35;;;15.40;99.90;;;;;;5061900;28;20044;-73
2022/10/14 05:33:32;;;;;;;23.15;12.77;;;15.40;99.90;;;;;;5061705;28;20103;-73
2022/10/14 05:35:58;;;;;;;24.73;14.00;;;15.30;99.90;;;;;;5064905;28;20028;-73
2022/10/14 05:38:24;;;;;;;24.63;14.35;;;15.30;99.90;;;;;;5059412;28;20422;-72
2022/10/14 05:40:54;;;;;;;23.55;14.68;;;15.30;99.90;;;;;;5055896;28;20604;-73
2022/10/14 05:43:19;;;;;;;22.05;14.00;;;15.30;99.90;;;;;;5063025;28;20037;-73
2022/10/14 05:45:45;;;;;;;22.75;14.48;;;15.30;99.90;;;;;;5062530;28;20378;-73
2022/10/14 05:48:11;;;;;;;27.15;15.73;;;15.30;99.90;;;;;;5058729;28;20120;-73
2022/10/14 05:50:36;;;;;;;21.15;13.48;;;15.40;99.90;;;;;;5067801;28;20014;-73
2022/10/14 05:53:02;;;;;;;23.38;14.38;;;15.30;99.90;;;;;;5057551;28;20039;-72
2022/10/14 05:55:28;;;;;;;21.65;13.60;;;15.20;99.90;;;;;;5063008;28;20070;-73
2022/10/14 05:57:57;;;;;;;22.52;15.18;;;15.30;99.90;;;;;;5056452;28;20032;-74
2022/10/14 06:00:23;;;;;;;21.08;13.77;;;15.30;99.90;;;;;;5061504;28;20033;-72
2022/10/14 06:02:49;;;;;;;22.33;14.38;;;15.30;99.90;;;;;;5056615;28;20452;-73
2022/10/14 06:05:14;;;;;;;23.73;15.52;;;15.30;99.90;;;;;;5060558;28;20547;-73
2022/10/14 06:07:40;;;;;;;21.50;14.43;;;15.30;99.90;;;;;;5061705;28;20076;-73
2022/10/14 06:10:06;;;;;;;26.85;16.15;;;15.40;99.90;;;;;;5060576;28;20020;-73
2022/10/14 06:12:31;;;;;;;28.05;16.38;;;15.40;99.90;;;;;;5057845;28;20438;-72
2022/10/14 06:14:57;;;;;;;30.02;17.52;;;15.30;99.90;;;;;;5061337;28;20484;-73
2022/10/14 06:17:23;;;;;;;31.48;16.48;;;15.30;99.90;;;;;;5057393;28;20037;-72
2022/10/14 06:19:49;;;;;;;29.17;16.50;;;15.30;99.90;;;;;;5057915;28;20469;-72
2022/10/14 06:22:14;;;;;;;30.50;17.40;;;15.20;99.90;;;;;;5062396;28;20412;-73
2022/10/14 06:24:40;;;;;;;31.13;18.02;;;15.20;99.90;;;;;;5060664;28;20072;-72
2022/10/14 06:27:05;;;;;;;27.30;16.13;;;15.10;99.90;;;;;;5075442;28;20037;-75
2022/10/14 06:29:36;;;;;;;24.98;16.65;;;15.20;99.90;;;;;;5062372;28;20028;-74
2022/10/14 06:32:04;;;;;;;24.83;16.88;;;15.20;99.90;;;;;;5059064;28;20083;-75
2022/10/14 06:34:30;;;;;;;29.70;17.52;;;15.20;99.90;;;;;;5060151;28;20059;-81
2022/10/14 06:36:55;;;;;;;25.52;17.00;;;15.20;99.90;;;;;;5059165;28;20028;-73
2022/10/14 06:39:21;;;;;;;31.65;17.30;;;15.20;99.90;;;;;;5062637;28;20063;-73
2022/10/14 06:41:47;;;;;;;30.00;17.50;;;15.20;99.90;;;;;;5063169;28;20024;-74
2022/10/14 06:44:14;;;;;;;29.95;19.25;;;15.30;99.90;;;;;;5056073;28;20074;-73
2022/10/14 06:46:40;;;;;;;28.70;16.88;;;15.30;99.90;;;;;;5061330;28;20418;-74
2022/10/14 06:49:06;;;;;;;30.75;17.23;;;15.20;99.90;;;;;;5063443;28;20058;-74
2022/10/14 06:51:31;;;;;;;24.88;17.23;;;15.30;99.90;;;;;;5058210;28;20025;-75
2022/10/14 06:53:57;;;;;;;23.75;16.30;;;15.30;99.90;;;;;;5063147;28;20111;-74
2022/10/14 06:56:22;;;;;;;28.55;16.15;;;15.30;99.90;;;;;;5063850;28;20373;-73
2022/10/14 06:58:52;;;;;;;29.92;17.83;;;15.30;99.90;;;;;;5061955;28;20033;-73
2022/10/14 07:01:18;;;;;;;26.10;15.68;;;15.30;99.90;;;;;;5063010;28;20021;-74
2022/10/14 07:03:43;;;;;;;24.73;16.25;;;15.40;99.90;;;;;;5066370;28;20039;-74
2022/10/14 07:06:09;;;;;;;26.08;17.48;;;15.40;99.90;;;;;;5057937;28;20085;-74
2022/10/14 07:08:35;;;;;;;24.17;16.35;;;15.30;99.90;;;;;;5059710;28;20040;-73
2022/10/14 07:11:00;;;;;;;28.95;17.83;;;15.40;99.90;;;;;;5067842;28;20047;-77
2022/10/14 07:13:26;;;;;;;23.75;16.45;;;15.40;99.90;;;;;;5059726;28;20036;-75
2022/10/14 07:15:52;;;;;;;24.88;17.50;;;15.40;99.90;;;;;;5055574;28;20032;-73
2022/10/14 07:18:18;;;;;;;26.13;16.08;;;15.40;99.90;;;;;;5063198;28;20043;-75
2022/10/14 07:20:44;;;;;;;24.20;15.90;;;15.40;99.90;;;;;;5066468;28;20099;-73
2022/10/14 07:23:10;;;;;;;23.38;16.15;;;15.40;99.90;;;;;;5065747;28;20024;-78
2022/10/14 07:25:36;;;;;;;23.45;15.65;;;15.50;99.90;;;;;;5062247;28;20160;-75
2022/10/14 07:28:02;;;;;;;25.40;17.23;;;15.50;99.90;;;;;;5067466;28;20549;-74
2022/10/14 07:30:27;;;;;;;23.50;12.43;;;15.50;99.90;;;;;;5065454;28;20024;-74
2022/10/14 07:32:53;;;;;;;20.23;14.18;;;15.60;99.90;;;;;;5067174;28;20020;-75
2022/10/14 07:35:19;;;;;;;19.20;14.05;;;15.60;99.90;;;;;;5066160;28;20021;-75
2022/10/14 07:37:45;;;;;;;21.50;14.50;;;15.60;99.90;;;;;;5063223;28;20029;-75
2022/10/14 07:40:12;;;;;;;22.83;14.60;;;15.60;99.90;;;;;;5066902;28;20036;-75
2022/10/14 07:42:38;;;;;;;24.52;14.68;;;15.70;99.90;;;;;;5065490;28;20037;-75
2022/10/14 07:45:04;;;;;;;22.15;14.52;;;15.70;99.90;;;;;;5066660;28;20029;-75
2022/10/14 07:47:32;;;;;;;20.67;13.55;;;15.70;99.90;;;;;;5066590;28;20037;-76
2022/10/14 07:50:00;;;;;;;18.02;12.48;;;15.70;99.90;;;;;;5067637;28;20477;-75
2022/10/14 07:52:25;;;;;;;22.55;13.68;;;15.60;99.90;;;;;;5055641;28;20061;-75
2022/10/14 07:54:51;;;;;;;18.77;11.68;;;15.70;99.90;;;;;;5064147;28;20063;-74
2022/10/14 07:57:17;;;;;;;17.88;12.10;;;15.60;99.90;;;;;;5061082;28;20033;-76
2022/10/14 07:59:42;;;;;;;18.05;12.43;;;15.60;99.90;;;;;;5060730;28;20112;-74
2022/10/14 08:02:10;;;;;;;17.27;11.80;;;15.60;99.90;;;;;;5060371;28;20104;-74
2022/10/14 08:04:36;;;;;;;17.02;12.15;;;15.70;99.90;;;;;;5074661;28;20035;-73
2022/10/14 08:07:03;;;;;;;23.05;13.02;;;15.70;99.90;;;;;;5061995;28;20036;-74
2022/10/14 08:09:29;;;;;;;18.13;12.52;;;15.70;99.90;;;;;;5064423;28;20020;-73
2022/10/14 08:11:55;;;;;;;19.27;11.73;;;15.80;99.90;;;;;;5067157;28;20041;-75
2022/10/14 08:14:20;;;;;;;17.50;13.18;;;15.80;99.90;;;;;;5065161;28;20016;-74
2022/10/14 08:16:46;;;;;;;16.25;11.98;;;15.80;99.90;;;;;;5068636;28;20110;-75
2022/10/14 08:19:13;;;;;;;17.55;12.00;;;15.80;99.90;;;;;;5067944;28;20509;-74
2022/10/14 08:21:40;;;;;;;18.38;11.88;;;15.90;99.90;;;;;;5059770;28;20119;-73
2022/10/14 08:24:06;;;;;;;22.00;13.50;;;15.90;99.90;;;;;;5061137;28;20112;-74
2022/10/14 08:26:34;;;;;;;19.08;13.13;;;16.00;99.90;;;;;;5063846;28;20466;-73
2022/10/14 08:29:02;;;;;;;17.33;12.43;;;15.90;99.90;;;;;;5070035;28;20021;-74
2022/10/14 08:31:28;;;;;;;17.63;11.80;;;15.90;99.90;;;;;;5063192;28;20063;-74
2022/10/14 08:33:54;;;;;;;16.73;12.52;;;15.90;99.90;;;;;;5025851;28;20482;-74
2022/10/14 08:36:20;;;;;;;17.40;12.18;;;15.90;99.90;;;;;;5050569;28;20024;-74
2022/10/14 08:38:46;;;;;;;18.45;11.48;;;15.90;99.90;;;;;;5057949;28;20029;-74
2022/10/14 08:41:15;;;;;;;16.08;12.02;;;15.90;99.90;;;;;;5061226;28;20104;-74
2022/10/14 08:43:53;;;;;;;16.95;11.48;;;16.00;99.90;;;;;;5059617;28;20107;-74
2022/10/14 08:46:25;;;;;;;13.10;9.73;;;16.00;99.90;;;;;;5060846;28;20070;-74
2022/10/14 08:49:01;;;;;;;15.77;11.48;;;16.10;99.90;;;;;;5066845;28;20488;-74
2022/10/14 08:51:29;;;;;;;15.63;11.18;;;16.10;99.90;;;;;;5061292;28;20025;-74
2022/10/14 08:54:05;;;;;;;15.20;11.10;;;16.20;99.90;;;;;;5058812;28;20029;-74
2022/10/14 08:56:33;;;;;;;15.25;11.20;;;16.30;99.90;;;;;;5048665;28;20029;-74
2022/10/14 08:59:06;;;;;;;16.08;12.70;;;16.20;99.90;;;;;;5056510;28;20036;-74
2022/10/14 09:01:34;;;;;;;14.60;10.65;;;16.30;99.90;;;;;;5047956;28;20039;-74
2022/10/14 09:04:13;;;;;;;17.17;10.65;;;16.30;99.90;;;;;;5058898;28;20033;-74
2022/10/14 09:06:42;;;;;;;17.10;11.05;;;16.30;99.90;;;;;;5057664;28;20020;-74
2022/10/14 09:09:42;;;;;;;16.13;10.85;;;16.30;99.90;;;;;;5057997;28;20492;-74
2022/10/14 09:12:12;;;;;;;16.30;10.75;;;16.40;99.90;;;;;;5048106;28;20060;-74
2022/10/14 09:15:00;;;;;;;14.40;10.48;;;16.40;99.90;;;;;;5055951;28;20028;-74
2022/10/14 09:17:31;;;;;;;16.17;11.30;;;16.50;99.90;;;;;;5059970;28;20036;-74
2022/10/14 09:20:04;;;;;;;15.65;10.98;;;16.60;99.90;;;;;;5056349;28;20711;-74
2022/10/14 09:22:30;;;;;;;15.18;11.05;;;16.50;99.90;;;;;;5060456;28;20036;-74
2022/10/14 09:24:57;;;;;;;13.07;9.55;;;16.50;99.90;;;;;;5059068;28;20593;-74
2022/10/14 09:27:23;;;;;;;13.20;9.90;;;16.50;99.90;;;;;;5057745;28;20033;-74
2022/10/14 09:29:57;;;;;;;14.32;10.30;;;16.40;99.90;;;;;;5055163;28;20351;-74
2022/10/14 09:32:26;;;;;;;10.30;8.90;;;16.50;99.90;;;;;;5059541;28;20021;-74
2022/10/14 09:34:52;;;;;;;14.23;9.15;;;16.50;99.90;;;;;;5055987;28;20482;-74
2022/10/14 09:37:30;;;;;;;12.35;9.27;;;16.60;99.90;;;;;;5057985;28;20129;-76
2022/10/14 09:40:07;;;;;;;14.45;8.88;;;16.60;99.90;;;;;;5056010;28;20040;-75
2022/10/14 09:43:00;;;;;;;13.57;8.30;;;16.60;99.90;;;;;;5059680;28;20469;-75
2022/10/14 09:45:29;;;;;;;14.73;9.23;;;16.60;99.90;;;;;;5057779;28;20492;-75
2022/10/14 09:48:02;;;;;;;13.88;9.77;;;16.60;99.90;;;;;;5057961;28;20044;-75
2022/10/14 09:50:34;;;;;;;13.23;9.15;;;16.60;99.90;;;;;;5059021;28;20050;-74
2022/10/14 09:53:03;;;;;;;12.55;8.90;;;16.70;99.90;;;;;;5055034;28;20106;-74
2022/10/14 09:55:31;;;;;;;10.80;8.75;;;16.70;99.90;;;;;;5059424;28;20058;-74
2022/10/14 09:58:07;;;;;;;15.57;9.68;;;16.60;99.90;;;;;;5060913;28;20031;-74
2022/10/14 10:00:36;;;;;;;10.50;8.18;;;16.70;99.90;;;;;;5058327;28;20397;-74
2022/10/14 10:03:02;;;;;;;13.48;8.85;;;16.60;99.90;;;;;;5057399;28;20078;-74
2022/10/14 10:05:32;;;;;;;13.55;9.48;;;16.70;99.90;;;;;;5057482;28;20035;-74
2022/10/14 10:08:14;;;;;;;11.93;8.77;;;16.70;99.90;;;;;;5058451;28;20097;-74
2022/10/14 10:10:40;;;;;;;;;;;16.70;99.90;;;;;;5059028;28;20079;-73
2022/10/14 10:13:46;;;;;;;14.63;9.95;;;16.70;99.90;;;;;;5058803;28;20352;-74
2022/10/14 10:16:25;;;;;;;16.67;9.23;;;16.70;99.90;;;;;;5053056;28;20028;-74
2022/10/14 10:18:54;;;;;;;11.20;8.25;;;16.80;99.90;;;;;;5059712;28;20033;-74
2022/10/14 10:21:28;;;;;;;11.85;8.27;;;16.70;99.90;;;;;;5054026;28;20401;-74
2022/10/14 10:24:01;;;;;;;11.15;7.80;;;16.80;99.90;;;;;;5056098;28;20032;-74
2022/10/14 10:26:32;;;;;;;;;;;16.80;99.90;;;;;;5057167;28;20044;-75
2022/10/14 10:29:01;;;;;;;8.88;7.90;;;16.70;99.90;;;;;;5058631;28;19960;-74
2022/10/14 10:31:46;;;;;;;11.13;8.18;;;16.90;99.90;;;;;;5055999;28;20116;-74
2022/10/14 10:34:21;;;;;;;11.43;7.65;;;17.10;99.90;;;;;;5055273;28;20174;-74
2022/10/14 10:37:12;;;;;;;11.48;7.18;;;17.00;99.90;;;;;;5057149;28;20380;-74
2022/10/14 10:40:05;;;;;;;9.60;6.28;;;17.00;99.90;;;;;;5051940;28;20033;-74
2022/10/14 10:42:45;;;;;;;6.75;5.90;;;17.10;99.90;;;;;;5057445;28;20629;-74
2022/10/14 10:45:42;;;;;;;9.50;6.75;;;17.00;99.90;;;;;;5054267;28;20071;-75
2022/10/14 10:48:19;;;;;;;10.82;6.85;;;17.10;99.90;;;;;;5056194;28;20029;-74
2022/10/14 10:50:56;;;;;;;7.90;7.05;;;17.20;99.90;;;;;;5057461;28;20035;-75
2022/10/14 10:53:55;;;;;;;10.10;6.90;;;17.30;99.90;;;;;;5061155;28;20659;-75
2022/10/14 10:56:44;;;;;;;10.85;7.10;;;17.20;99.90;;;;;;5059781;28;20032;-75
2022/10/14 10:59:38;;;;;;;8.02;7.00;;;17.30;99.90;;;;;;5061447;28;20029;-74
2022/10/14 11:02:32;;;;;;;7.97;6.93;;;17.30;99.90;;;;;;5061806;28;20056;-74
2022/10/14 11:05:16;;;;;;;8.32;7.35;;;17.20;99.90;;;;;;5063808;28;20037;-73
2022/10/14 11:13:31;;;;;;;9.85;7.15;;;17.30;99.90;;;;;;5061217;28;20047;-73
2022/10/14 11:16:06;;;;;;;11.88;7.88;;;17.20;99.90;;;;;;5061617;28;20152;-72
2022/10/14 11:18:37;;;;;;;8.50;7.03;;;17.20;99.90;;;;;;5061334;28;20040;-72
2022/10/14 11:21:12;;;;;;;7.68;6.97;;;17.30;99.90;;;;;;5061970;28;20058;-72
2022/10/14 11:24:03;;;;;;;8.77;7.28;;;17.30;99.90;;;;;;5060803;28;20107;-72
2022/10/14 11:26:37;;;;;;;9.93;7.40;;;17.20;99.90;;;;;;5075046;28;20479;-72
2022/10/14 11:29:28;;;;;;;10.25;7.70;;;17.20;99.90;;;;;;5060427;28;20452;-73
2022/10/14 11:32:06;;;;;;;8.50;7.47;;;17.30;99.90;;;;;;5061309;28;20028;-74
2022/10/14 11:35:13;;;;;;;9.93;7.03;;;17.30;99.90;;;;;;5061222;28;20109;-73
2022/10/14 11:37:45;;;;;;;10.77;7.68;;;17.30;99.90;;;;;;5037473;28;20059;-73
2022/10/14 11:40:32;;;;;;;11.35;7.75;;;17.30;99.90;;;;;;5038530;28;20029;-73
2022/10/14 11:43:19;;;;;;;8.45;7.00;;;17.30;99.90;;;;;;5053004;28;20047;-72
2022/10/14 11:46:00;;;;;;;12.20;8.75;;;17.30;99.90;;;;;;5061426;28;20028;-74
2022/10/14 11:48:38;;;;;;;12.60;9.15;;;17.30;99.90;;;;;;5059199;28;20097;-74
2022/10/14 11:51:36;;;;;;;11.85;9.10;;;17.20;99.90;;;;;;5055832;28;20029;-74
2022/10/14 11:54:10;;;;;;;13.05;9.95;;;17.20;99.90;;;;;;5051075;28;20037;-74
2022/10/14 11:57:13;;;;;;;11.27;9.65;;;17.20;99.90;;;;;;5057413;28;20040;-73
2022/10/14 12:00:06;;;;;;;14.45;10.45;;;17.30;99.90;;;;;;5059590;28;20097;-72
2022/10/14 12:03:11;;;;;;;11.40;8.88;;;17.30;99.90;;;;;;5061598;28;20028;-73
2022/10/14 12:05:44;;;;;;;12.50;10.30;;;17.40;99.90;;;;;;5058460;28;20033;-74
2022/10/14 12:08:16;;;;;;;16.13;9.25;;;17.40;99.90;;;;;;5059328;28;20044;-73
2022/10/14 12:11:16;;;;;;;13.35;9.32;;;17.30;99.90;;;;;;5060715;28;20024;-74
2022/10/14 12:13:46;;;;;;;10.95;8.80;;;17.30;99.90;;;;;;5034592;28;20045;-74
2022/10/14 12:16:15;;;;;;;13.43;8.55;;;17.40;99.90;;;;;;5057766;28;20103;-73
2022/10/14 12:18:43;;;;;;;9.80;7.75;;;17.40;99.90;;;;;;5059399;28;20024;-74
2022/10/14 12:21:17;;;;;;;8.40;7.53;;;17.40;99.90;;;;;;5060695;28;20031;-72
2022/10/14 12:23:52;;;;;;;7.50;6.45;;;17.50;99.90;;;;;;5059130;28;20448;-73
2022/10/14 12:26:21;;;;;;;9.18;6.90;;;17.50;99.90;;;;;;5055685;28;20062;-72
2022/10/14 12:28:48;;;;;;;7.53;6.75;;;17.50;99.90;;;;;;5060384;28;20054;-72
2022/10/14 12:31:37;;;;;;;8.05;7.25;;;17.50;99.90;;;;;;5071672;28;20790;-71
2022/10/14 12:34:14;;;;;;;7.60;6.90;;;17.60;99.90;;;;;;5058813;28;20036;-72
2022/10/14 12:36:49;;;;;;;10.55;6.75;;;17.60;99.90;;;;;;5060684;28;20426;-71
2022/10/14 12:39:17;;;;;;;9.68;7.07;;;17.60;99.90;;;;;;5058544;28;20484;-72
2022/10/14 12:41:59;;;;;;;8.13;6.32;;;17.70;99.90;;;;;;5059908;28;20111;-72
2022/10/14 12:44:47;;;;;;;7.95;6.53;;;17.70;99.90;;;;;;5059881;28;20091;-72
2022/10/14 12:47:34;;;;;;;8.60;6.72;;;17.60;99.90;;;;;;5057529;28;20066;-72
2022/10/14 12:50:21;;;;;;;7.85;6.07;;;17.70;99.90;;;;;;5055820;28;20492;-72
2022/10/14 12:52:56;;;;;;;9.35;6.63;;;17.70;99.90;;;;;;5054830;28;20021;-72
2022/10/14 12:55:25;;;;;;;6.97;6.30;;;17.80;99.90;;;;;;5057205;28;20025;-72